sensor_id;sensor_type;location;lat;lon;timestamp;P1;durP1;ratioP1;P2;durP2;ratioP2
21955;SDS011;11142;49.930;8.606;2024-02-21T00:01:48;15.18;;;5.43;;
21955;SDS011;11142;49.930;8.606;2024-02-21T00:04:16;12.52;;;5.18;;
21955;SDS011;11142;49.930;8.606;2024-02-21T00:06:44;18.20;;;5.82;;
21955;SDS011;11142;49.930;8.606;2024-02-21T00:09:14;15.50;;;5.72;;
21955;SDS011;11142;49.930;8.606;2024-02-21T00:11:42;17.05;;;5.75;;
21955;SDS011;11142;49.930;8.606;2024-02-21T00:14:10;11.98;;;5.07;;
21955;SDS011;11142;49.930;8.606;2024-02-21T00:16:38;15.70;;;5.82;;
21955;SDS011;11142;49.930;8.606;2024-02-21T00:19:06;14.73;;;5.90;;
21955;SDS011;11142;49.930;8.606;2024-02-21T00:21:34;18.67;;;5.57;;
21955;SDS011;11142;49.930;8.606;2024-02-21T00:24:04;12.80;;;6.13;;
21955;SDS011;11142;49.930;8.606;2024-02-21T00:26:37;14.57;;;5.82;;
21955;SDS011;11142;49.930;8.606;2024-02-21T00:29:05;12.82;;;6.18;;
21955;SDS011;11142;49.930;8.606;2024-02-21T00:31:35;15.20;;;5.82;;
21955;SDS011;11142;49.930;8.606;2024-02-21T00:34:02;16.48;;;6.30;;
21955;SDS011;11142;49.930;8.606;2024-02-21T00:36:31;22.70;;;6.95;;
21955;SDS011;11142;49.930;8.606;2024-02-21T00:38:59;15.63;;;6.07;;
21955;SDS011;11142;49.930;8.606;2024-02-21T00:41:27;19.40;;;5.78;;
21955;SDS011;11142;49.930;8.606;2024-02-21T00:43:56;17.83;;;6.07;;
21955;SDS011;11142;49.930;8.606;2024-02-21T00:46:24;18.55;;;7.47;;
21955;SDS011;11142;49.930;8.606;2024-02-21T00:48:52;18.70;;;7.07;;
21955;SDS011;11142;49.930;8.606;2024-02-21T00:51:21;21.27;;;7.75;;
21955;SDS011;11142;49.930;8.606;2024-02-21T00:53:49;19.73;;;6.53;;
21955;SDS011;11142;49.930;8.606;2024-02-21T00:56:16;15.65;;;7.00;;
21955;SDS011;11142;49.930;8.606;2024-02-21T00:58:44;22.27;;;6.78;;
21955;SDS011;11142;49.930;8.606;2024-02-21T01:01:14;14.85;;;7.20;;
21955;SDS011;11142;49.930;8.606;2024-02-21T01:03:50;24.83;;;7.18;;
21955;SDS011;11142;49.930;8.606;2024-02-21T01:06:20;20.52;;;7.18;;
21955;SDS011;11142;49.930;8.606;2024-02-21T01:08:50;21.67;;;7.15;;
21955;SDS011;11142;49.930;8.606;2024-02-21T01:11:18;17.73;;;6.55;;
21955;SDS011;11142;49.930;8.606;2024-02-21T01:13:46;16.50;;;6.07;;
21955;SDS011;11142;49.930;8.606;2024-02-21T01:16:15;23.98;;;7.13;;
21955;SDS011;11142;49.930;8.606;2024-02-21T01:18:44;17.63;;;6.53;;
21955;SDS011;11142;49.930;8.606;2024-02-21T01:21:13;14.05;;;6.00;;
21955;SDS011;11142;49.930;8.606;2024-02-21T01:23:43;19.77;;;7.10;;
21955;SDS011;11142;49.930;8.606;2024-02-21T01:26:11;12.35;;;6.22;;
21955;SDS011;11142;49.930;8.606;2024-02-21T01:28:40;17.95;;;6.70;;
21955;SDS011;11142;49.930;8.606;2024-02-21T01:31:09;15.18;;;6.53;;
21955;SDS011;11142;49.930;8.606;2024-02-21T01:33:41;17.27;;;6.47;;
21955;SDS011;11142;49.930;8.606;2024-02-21T01:36:09;19.63;;;6.75;;
21955;SDS011;11142;49.930;8.606;2024-02-21T01:38:37;15.88;;;6.50;;
21955;SDS011;11142;49.930;8.606;2024-02-21T01:41:06;25.92;;;7.55;;
21955;SDS011;11142;49.930;8.606;2024-02-21T01:43:33;22.75;;;6.93;;
21955;SDS011;11142;49.930;8.606;2024-02-21T01:46:01;16.08;;;6.22;;
21955;SDS011;11142;49.930;8.606;2024-02-21T01:48:30;19.95;;;6.68;;
21955;SDS011;11142;49.930;8.606;2024-02-21T01:50:59;21.92;;;6.68;;
21955;SDS011;11142;49.930;8.606;2024-02-21T01:53:29;21.27;;;6.78;;
21955;SDS011;11142;49.930;8.606;2024-02-21T01:56:00;24.42;;;7.68;;
21955;SDS011;11142;49.930;8.606;2024-02-21T01:58:28;18.75;;;6.82;;
21955;SDS011;11142;49.930;8.606;2024-02-21T02:00:57;22.30;;;7.03;;
21955;SDS011;11142;49.930;8.606;2024-02-21T02:18:01;16.58;;;6.80;;
21955;SDS011;11142;49.930;8.606;2024-02-21T02:20:29;17.52;;;6.90;;
21955;SDS011;11142;49.930;8.606;2024-02-21T02:22:57;28.42;;;7.03;;
21955;SDS011;11142;49.930;8.606;2024-02-21T02:25:28;17.23;;;7.20;;
21955;SDS011;11142;49.930;8.606;2024-02-21T02:27:56;19.13;;;7.05;;
21955;SDS011;11142;49.930;8.606;2024-02-21T02:30:24;17.60;;;7.40;;
21955;SDS011;11142;49.930;8.606;2024-02-21T02:32:52;24.13;;;7.60;;
21955;SDS011;11142;49.930;8.606;2024-02-21T02:35:20;21.67;;;7.32;;
21955;SDS011;11142;49.930;8.606;2024-02-21T02:37:49;19.85;;;7.38;;
21955;SDS011;11142;49.930;8.606;2024-02-21T02:40:18;21.17;;;7.32;;
21955;SDS011;11142;49.930;8.606;2024-02-21T02:42:48;19.67;;;7.00;;
21955;SDS011;11142;49.930;8.606;2024-02-21T02:45:17;23.77;;;7.28;;
21955;SDS011;11142;49.930;8.606;2024-02-21T02:47:46;18.75;;;7.57;;
21955;SDS011;11142;49.930;8.606;2024-02-21T02:50:15;20.00;;;6.78;;
21955;SDS011;11142;49.930;8.606;2024-02-21T02:52:43;17.70;;;7.35;;
21955;SDS011;11142;49.930;8.606;2024-02-21T02:55:12;17.13;;;7.63;;
21955;SDS011;11142;49.930;8.606;2024-02-21T02:57:40;23.80;;;7.13;;
21955;SDS011;11142;49.930;8.606;2024-02-21T03:00:10;14.20;;;6.85;;
21955;SDS011;11142;49.930;8.606;2024-02-21T03:02:41;14.98;;;6.47;;
21955;SDS011;11142;49.930;8.606;2024-02-21T03:05:12;23.67;;;6.72;;
21955;SDS011;11142;49.930;8.606;2024-02-21T03:07:42;17.13;;;6.88;;
21955;SDS011;11142;49.930;8.606;2024-02-21T03:10:11;21.08;;;7.60;;
21955;SDS011;11142;49.930;8.606;2024-02-21T03:12:40;16.88;;;7.70;;
21955;SDS011;11142;49.930;8.606;2024-02-21T03:15:08;19.15;;;7.15;;
21955;SDS011;11142;49.930;8.606;2024-02-21T03:17:38;17.48;;;6.68;;
21955;SDS011;11142;49.930;8.606;2024-02-21T03:20:06;17.75;;;6.80;;
21955;SDS011;11142;49.930;8.606;2024-02-21T03:22:39;25.75;;;7.10;;
21955;SDS011;11142;49.930;8.606;2024-02-21T03:25:08;19.83;;;6.65;;
21955;SDS011;11142;49.930;8.606;2024-02-21T03:27:40;24.00;;;7.95;;
21955;SDS011;11142;49.930;8.606;2024-02-21T03:30:10;15.52;;;7.15;;
21955;SDS011;11142;49.930;8.606;2024-02-21T03:32:40;19.55;;;6.35;;
21955;SDS011;11142;49.930;8.606;2024-02-21T03:35:08;17.63;;;7.18;;
21955;SDS011;11142;49.930;8.606;2024-02-21T03:37:37;17.77;;;7.18;;
21955;SDS011;11142;49.930;8.606;2024-02-21T03:40:09;17.65;;;7.20;;
21955;SDS011;11142;49.930;8.606;2024-02-21T03:42:38;23.33;;;7.88;;
21955;SDS011;11142;49.930;8.606;2024-02-21T03:45:11;20.70;;;6.68;;
21955;SDS011;11142;49.930;8.606;2024-02-21T03:47:39;16.50;;;6.57;;
21955;SDS011;11142;49.930;8.606;2024-02-21T03:50:07;21.27;;;7.47;;
21955;SDS011;11142;49.930;8.606;2024-02-21T03:52:36;19.48;;;7.55;;
21955;SDS011;11142;49.930;8.606;2024-02-21T03:55:04;19.20;;;6.80;;
21955;SDS011;11142;49.930;8.606;2024-02-21T03:57:34;17.08;;;7.15;;
21955;SDS011;11142;49.930;8.606;2024-02-21T04:00:03;16.60;;;8.15;;
21955;SDS011;11142;49.930;8.606;2024-02-21T04:02:39;15.80;;;6.35;;
21955;SDS011;11142;49.930;8.606;2024-02-21T04:05:07;31.23;;;8.35;;
21955;SDS011;11142;49.930;8.606;2024-02-21T04:07:38;23.83;;;8.27;;
21955;SDS011;11142;49.930;8.606;2024-02-21T04:10:06;17.30;;;7.80;;
21955;SDS011;11142;49.930;8.606;2024-02-21T04:12:36;17.58;;;6.97;;
21955;SDS011;11142;49.930;8.606;2024-02-21T04:15:05;24.98;;;7.40;;
21955;SDS011;11142;49.930;8.606;2024-02-21T04:17:34;19.08;;;7.07;;
21955;SDS011;11142;49.930;8.606;2024-02-21T04:20:04;21.48;;;7.45;;
21955;SDS011;11142;49.930;8.606;2024-02-21T04:22:35;16.60;;;6.70;;
21955;SDS011;11142;49.930;8.606;2024-02-21T04:25:03;20.45;;;6.30;;
21955;SDS011;11142;49.930;8.606;2024-02-21T04:27:33;15.02;;;5.72;;
21955;SDS011;11142;49.930;8.606;2024-02-21T04:30:01;19.73;;;6.88;;
21955;SDS011;11142;49.930;8.606;2024-02-21T04:32:30;19.65;;;7.05;;
21955;SDS011;11142;49.930;8.606;2024-02-21T04:34:58;17.92;;;5.97;;
21955;SDS011;11142;49.930;8.606;2024-02-21T04:37:31;16.05;;;6.35;;
21955;SDS011;11142;49.930;8.606;2024-02-21T04:39:59;21.92;;;6.30;;
21955;SDS011;11142;49.930;8.606;2024-02-21T04:42:27;20.23;;;6.10;;
21955;SDS011;11142;49.930;8.606;2024-02-21T04:44:55;20.50;;;6.13;;
21955;SDS011;11142;49.930;8.606;2024-02-21T04:47:24;16.13;;;6.15;;
21955;SDS011;11142;49.930;8.606;2024-02-21T04:49:53;23.85;;;6.45;;
21955;SDS011;11142;49.930;8.606;2024-02-21T04:52:21;19.60;;;6.80;;
21955;SDS011;11142;49.930;8.606;2024-02-21T04:54:51;22.63;;;6.40;;
21955;SDS011;11142;49.930;8.606;2024-02-21T04:57:20;18.23;;;6.60;;
21955;SDS011;11142;49.930;8.606;2024-02-21T04:59:48;13.27;;;5.78;;
21955;SDS011;11142;49.930;8.606;2024-02-21T05:02:16;24.90;;;7.55;;
21955;SDS011;11142;49.930;8.606;2024-02-21T05:04:45;22.98;;;7.50;;
21955;SDS011;11142;49.930;8.606;2024-02-21T05:07:14;20.83;;;6.95;;
21955;SDS011;11142;49.930;8.606;2024-02-21T05:09:42;17.15;;;7.40;;
21955;SDS011;11142;49.930;8.606;2024-02-21T05:12:13;21.42;;;6.40;;
21955;SDS011;11142;49.930;8.606;2024-02-21T05:14:42;26.33;;;6.40;;
21955;SDS011;11142;49.930;8.606;2024-02-21T05:17:09;24.80;;;6.78;;
21955;SDS011;11142;49.930;8.606;2024-02-21T05:19:37;21.30;;;6.93;;
21955;SDS011;11142;49.930;8.606;2024-02-21T05:22:05;23.50;;;6.88;;
21955;SDS011;11142;49.930;8.606;2024-02-21T05:24:34;21.10;;;6.75;;
21955;SDS011;11142;49.930;8.606;2024-02-21T05:27:02;22.63;;;6.80;;
21955;SDS011;11142;49.930;8.606;2024-02-21T05:29:32;20.05;;;6.93;;
21955;SDS011;11142;49.930;8.606;2024-02-21T05:32:00;19.00;;;7.28;;
21955;SDS011;11142;49.930;8.606;2024-02-21T05:34:30;18.83;;;7.05;;
21955;SDS011;11142;49.930;8.606;2024-02-21T05:36:58;18.85;;;8.30;;
21955;SDS011;11142;49.930;8.606;2024-02-21T05:39:27;23.15;;;6.68;;
21955;SDS011;11142;49.930;8.606;2024-02-21T05:41:56;17.27;;;6.75;;
21955;SDS011;11142;49.930;8.606;2024-02-21T05:44:23;22.30;;;7.00;;
21955;SDS011;11142;49.930;8.606;2024-02-21T05:46:54;25.27;;;7.28;;
21955;SDS011;11142;49.930;8.606;2024-02-21T05:49:23;24.55;;;7.70;;
21955;SDS011;11142;49.930;8.606;2024-02-21T05:51:51;24.42;;;7.53;;
21955;SDS011;11142;49.930;8.606;2024-02-21T05:54:19;18.50;;;7.32;;
21955;SDS011;11142;49.930;8.606;2024-02-21T05:56:47;19.77;;;7.53;;
21955;SDS011;11142;49.930;8.606;2024-02-21T05:59:15;19.30;;;7.43;;
21955;SDS011;11142;49.930;8.606;2024-02-21T06:01:43;21.83;;;6.35;;
21955;SDS011;11142;49.930;8.606;2024-02-21T06:04:12;18.45;;;6.65;;
21955;SDS011;11142;49.930;8.606;2024-02-21T06:06:41;24.48;;;7.22;;
21955;SDS011;11142;49.930;8.606;2024-02-21T06:09:09;20.10;;;6.85;;
21955;SDS011;11142;49.930;8.606;2024-02-21T06:11:37;17.38;;;7.25;;
21955;SDS011;11142;49.930;8.606;2024-02-21T06:14:05;16.08;;;6.93;;
21955;SDS011;11142;49.930;8.606;2024-02-21T06:16:33;14.50;;;6.80;;
21955;SDS011;11142;49.930;8.606;2024-02-21T06:19:01;17.67;;;7.03;;
21955;SDS011;11142;49.930;8.606;2024-02-21T06:21:36;16.40;;;6.22;;
21955;SDS011;11142;49.930;8.606;2024-02-21T06:24:04;13.55;;;6.55;;
21955;SDS011;11142;49.930;8.606;2024-02-21T06:26:32;25.40;;;6.45;;
21955;SDS011;11142;49.930;8.606;2024-02-21T06:29:00;15.70;;;6.13;;
21955;SDS011;11142;49.930;8.606;2024-02-21T06:31:29;14.85;;;6.95;;
21955;SDS011;11142;49.930;8.606;2024-02-21T06:33:58;14.38;;;5.50;;
21955;SDS011;11142;49.930;8.606;2024-02-21T06:36:27;11.80;;;5.38;;
21955;SDS011;11142;49.930;8.606;2024-02-21T06:38:56;13.27;;;5.43;;
21955;SDS011;11142;49.930;8.606;2024-02-21T06:41:27;20.88;;;6.35;;
21955;SDS011;11142;49.930;8.606;2024-02-21T06:43:59;14.43;;;5.70;;
21955;SDS011;11142;49.930;8.606;2024-02-21T06:46:27;13.23;;;5.63;;
21955;SDS011;11142;49.930;8.606;2024-02-21T06:48:56;15.93;;;5.88;;
21955;SDS011;11142;49.930;8.606;2024-02-21T06:51:24;18.67;;;5.90;;
21955;SDS011;11142;49.930;8.606;2024-02-21T06:53:52;20.35;;;6.20;;
21955;SDS011;11142;49.930;8.606;2024-02-21T06:56:26;20.60;;;6.82;;
21955;SDS011;11142;49.930;8.606;2024-02-21T06:58:57;14.20;;;5.47;;
21955;SDS011;11142;49.930;8.606;2024-02-21T07:01:26;19.38;;;5.95;;
21955;SDS011;11142;49.930;8.606;2024-02-21T07:03:54;15.43;;;6.15;;
21955;SDS011;11142;49.930;8.606;2024-02-21T07:06:23;16.88;;;6.22;;
21955;SDS011;11142;49.930;8.606;2024-02-21T07:08:52;16.85;;;6.35;;
21955;SDS011;11142;49.930;8.606;2024-02-21T07:11:20;15.18;;;5.93;;
21955;SDS011;11142;49.930;8.606;2024-02-21T07:13:51;17.58;;;6.20;;
21955;SDS011;11142;49.930;8.606;2024-02-21T07:16:22;14.10;;;3.83;;
21955;SDS011;11142;49.930;8.606;2024-02-21T07:18:51;19.42;;;6.35;;
21955;SDS011;11142;49.930;8.606;2024-02-21T07:21:21;15.05;;;6.35;;
21955;SDS011;11142;49.930;8.606;2024-02-21T07:23:52;17.70;;;5.38;;
21955;SDS011;11142;49.930;8.606;2024-02-21T07:26:24;21.50;;;5.53;;
21955;SDS011;11142;49.930;8.606;2024-02-21T07:28:53;14.13;;;5.75;;
21955;SDS011;11142;49.930;8.606;2024-02-21T07:31:21;18.35;;;5.82;;
21955;SDS011;11142;49.930;8.606;2024-02-21T07:33:49;26.20;;;6.07;;
21955;SDS011;11142;49.930;8.606;2024-02-21T07:36:25;14.23;;;5.35;;
21955;SDS011;11142;49.930;8.606;2024-02-21T07:38:55;13.77;;;5.55;;
21955;SDS011;11142;49.930;8.606;2024-02-21T07:41:26;18.35;;;5.78;;
21955;SDS011;11142;49.930;8.606;2024-02-21T07:43:56;15.10;;;5.32;;
21955;SDS011;11142;49.930;8.606;2024-02-21T07:46:25;15.60;;;5.32;;
21955;SDS011;11142;49.930;8.606;2024-02-21T07:48:54;14.00;;;5.43;;
21955;SDS011;11142;49.930;8.606;2024-02-21T07:51:23;13.88;;;5.05;;
21955;SDS011;11142;49.930;8.606;2024-02-21T07:53:58;15.60;;;5.05;;
21955;SDS011;11142;49.930;8.606;2024-02-21T07:56:27;8.43;;;4.65;;
21955;SDS011;11142;49.930;8.606;2024-02-21T07:58:56;14.10;;;5.00;;
21955;SDS011;11142;49.930;8.606;2024-02-21T08:01:25;18.48;;;4.97;;
21955;SDS011;11142;49.930;8.606;2024-02-21T08:03:53;11.18;;;4.35;;
21955;SDS011;11142;49.930;8.606;2024-02-21T08:06:21;16.08;;;5.57;;
21955;SDS011;11142;49.930;8.606;2024-02-21T08:08:49;10.95;;;4.93;;
21955;SDS011;11142;49.930;8.606;2024-02-21T08:11:17;9.70;;;4.30;;
21955;SDS011;11142;49.930;8.606;2024-02-21T08:13:45;13.75;;;4.80;;
21955;SDS011;11142;49.930;8.606;2024-02-21T08:16:15;9.77;;;4.88;;
21955;SDS011;11142;49.930;8.606;2024-02-21T08:18:45;12.60;;;5.07;;
21955;SDS011;11142;49.930;8.606;2024-02-21T08:21:13;11.63;;;4.53;;
21955;SDS011;11142;49.930;8.606;2024-02-21T08:23:42;12.40;;;4.53;;
21955;SDS011;11142;49.930;8.606;2024-02-21T08:26:11;11.95;;;4.70;;
21955;SDS011;11142;49.930;8.606;2024-02-21T08:28:42;10.85;;;4.60;;
21955;SDS011;11142;49.930;8.606;2024-02-21T08:31:19;20.27;;;5.50;;
21955;SDS011;11142;49.930;8.606;2024-02-21T08:33:47;9.18;;;4.60;;
21955;SDS011;11142;49.930;8.606;2024-02-21T08:36:17;11.48;;;5.05;;
21955;SDS011;11142;49.930;8.606;2024-02-21T08:38:46;12.85;;;5.45;;
21955;SDS011;11142;49.930;8.606;2024-02-21T08:41:14;11.70;;;4.13;;
21955;SDS011;11142;49.930;8.606;2024-02-21T08:43:43;9.32;;;4.43;;
21955;SDS011;11142;49.930;8.606;2024-02-21T08:46:12;17.15;;;4.95;;
21955;SDS011;11142;49.930;8.606;2024-02-21T08:48:42;19.23;;;5.10;;
21955;SDS011;11142;49.930;8.606;2024-02-21T08:51:12;14.93;;;4.70;;
21955;SDS011;11142;49.930;8.606;2024-02-21T08:53:41;12.07;;;4.28;;
21955;SDS011;11142;49.930;8.606;2024-02-21T08:56:10;8.40;;;4.80;;
21955;SDS011;11142;49.930;8.606;2024-02-21T08:58:39;14.70;;;4.47;;
21955;SDS011;11142;49.930;8.606;2024-02-21T09:01:08;8.73;;;4.45;;
21955;SDS011;11142;49.930;8.606;2024-02-21T09:03:37;9.00;;;4.30;;
21955;SDS011;11142;49.930;8.606;2024-02-21T09:06:11;20.00;;;4.75;;
21955;SDS011;11142;49.930;8.606;2024-02-21T09:08:40;14.98;;;3.95;;
21955;SDS011;11142;49.930;8.606;2024-02-21T09:11:11;12.70;;;4.22;;
21955;SDS011;11142;49.930;8.606;2024-02-21T09:13:39;11.20;;;3.97;;
21955;SDS011;11142;49.930;8.606;2024-02-21T09:16:07;12.40;;;4.57;;
21955;SDS011;11142;49.930;8.606;2024-02-21T09:18:38;8.98;;;3.75;;
21955;SDS011;11142;49.930;8.606;2024-02-21T09:21:06;12.88;;;4.32;;
21955;SDS011;11142;49.930;8.606;2024-02-21T09:23:39;10.32;;;3.72;;
21955;SDS011;11142;49.930;8.606;2024-02-21T09:26:07;8.90;;;3.65;;
21955;SDS011;11142;49.930;8.606;2024-02-21T09:28:40;9.40;;;3.97;;
21955;SDS011;11142;49.930;8.606;2024-02-21T09:31:08;9.80;;;4.10;;
21955;SDS011;11142;49.930;8.606;2024-02-21T09:33:36;14.43;;;5.47;;
21955;SDS011;11142;49.930;8.606;2024-02-21T09:36:05;13.80;;;4.13;;
21955;SDS011;11142;49.930;8.606;2024-02-21T09:38:39;10.45;;;3.80;;
21955;SDS011;11142;49.930;8.606;2024-02-21T09:41:11;10.38;;;4.57;;
21955;SDS011;11142;49.930;8.606;2024-02-21T09:43:51;9.60;;;4.50;;
21955;SDS011;11142;49.930;8.606;2024-02-21T09:46:24;10.23;;;3.70;;
21955;SDS011;11142;49.930;8.606;2024-02-21T09:49:04;12.60;;;4.22;;
21955;SDS011;11142;49.930;8.606;2024-02-21T09:51:41;15.15;;;3.83;;
21955;SDS011;11142;49.930;8.606;2024-02-21T09:54:14;8.38;;;3.88;;
21955;SDS011;11142;49.930;8.606;2024-02-21T09:56:44;10.07;;;4.00;;
21955;SDS011;11142;49.930;8.606;2024-02-21T09:59:13;11.68;;;3.80;;
21955;SDS011;11142;49.930;8.606;2024-02-21T10:01:42;13.35;;;4.05;;
21955;SDS011;11142;49.930;8.606;2024-02-21T10:04:10;10.27;;;4.15;;
21955;SDS011;11142;49.930;8.606;2024-02-21T10:06:38;8.35;;;4.03;;
21955;SDS011;11142;49.930;8.606;2024-02-21T10:09:19;11.63;;;3.60;;
21955;SDS011;11142;49.930;8.606;2024-02-21T10:11:50;7.93;;;3.60;;
21955;SDS011;11142;49.930;8.606;2024-02-21T10:14:19;7.88;;;3.92;;
21955;SDS011;11142;49.930;8.606;2024-02-21T10:16:55;12.02;;;4.30;;
21955;SDS011;11142;49.930;8.606;2024-02-21T10:19:25;15.35;;;4.05;;
21955;SDS011;11142;49.930;8.606;2024-02-21T10:22:00;13.00;;;4.05;;
21955;SDS011;11142;49.930;8.606;2024-02-21T10:24:31;8.82;;;3.90;;
21955;SDS011;11142;49.930;8.606;2024-02-21T10:27:04;9.02;;;3.88;;
21955;SDS011;11142;49.930;8.606;2024-02-21T10:29:35;11.75;;;3.85;;
21955;SDS011;11142;49.930;8.606;2024-02-21T10:32:04;9.77;;;3.58;;
21955;SDS011;11142;49.930;8.606;2024-02-21T10:34:36;11.68;;;3.92;;
21955;SDS011;11142;49.930;8.606;2024-02-21T10:37:08;10.20;;;4.28;;
21955;SDS011;11142;49.930;8.606;2024-02-21T10:39:39;6.88;;;3.70;;
21955;SDS011;11142;49.930;8.606;2024-02-21T10:42:10;10.07;;;3.90;;
21955;SDS011;11142;49.930;8.606;2024-02-21T10:44:40;9.55;;;3.47;;
21955;SDS011;11142;49.930;8.606;2024-02-21T10:47:10;9.75;;;4.32;;
21955;SDS011;11142;49.930;8.606;2024-02-21T10:49:42;11.00;;;5.07;;
21955;SDS011;11142;49.930;8.606;2024-02-21T10:52:21;11.80;;;3.27;;
21955;SDS011;11142;49.930;8.606;2024-02-21T10:55:03;12.15;;;4.07;;
21955;SDS011;11142;49.930;8.606;2024-02-21T10:57:32;13.98;;;4.20;;
21955;SDS011;11142;49.930;8.606;2024-02-21T11:00:04;10.57;;;3.55;;
21955;SDS011;11142;49.930;8.606;2024-02-21T11:02:36;6.97;;;2.75;;
21955;SDS011;11142;49.930;8.606;2024-02-21T11:05:07;9.70;;;3.50;;
21955;SDS011;11142;49.930;8.606;2024-02-21T11:07:37;9.77;;;4.00;;
21955;SDS011;11142;49.930;8.606;2024-02-21T11:10:22;11.57;;;3.88;;
21955;SDS011;11142;49.930;8.606;2024-02-21T11:12:52;7.50;;;3.60;;
21955;SDS011;11142;49.930;8.606;2024-02-21T11:15:25;7.93;;;3.13;;
21955;SDS011;11142;49.930;8.606;2024-02-21T11:17:56;6.07;;;3.25;;
21955;SDS011;11142;49.930;8.606;2024-02-21T11:20:34;10.30;;;4.00;;
21955;SDS011;11142;49.930;8.606;2024-02-21T11:23:03;11.20;;;3.40;;
21955;SDS011;11142;49.930;8.606;2024-02-21T11:25:33;11.30;;;3.42;;
21955;SDS011;11142;49.930;8.606;2024-02-21T11:28:01;11.98;;;3.10;;
21955;SDS011;11142;49.930;8.606;2024-02-21T11:30:31;7.30;;;2.85;;
21955;SDS011;11142;49.930;8.606;2024-02-21T11:33:03;11.73;;;3.65;;
21955;SDS011;11142;49.930;8.606;2024-02-21T11:35:34;12.70;;;4.40;;
21955;SDS011;11142;49.930;8.606;2024-02-21T11:38:09;10.20;;;3.33;;
21955;SDS011;11142;49.930;8.606;2024-02-21T11:40:44;8.38;;;3.00;;
21955;SDS011;11142;49.930;8.606;2024-02-21T11:43:14;10.13;;;3.55;;
21955;SDS011;11142;49.930;8.606;2024-02-21T11:45:43;9.65;;;3.40;;
21955;SDS011;11142;49.930;8.606;2024-02-21T11:48:11;8.23;;;2.55;;
21955;SDS011;11142;49.930;8.606;2024-02-21T11:50:39;11.55;;;3.25;;
21955;SDS011;11142;49.930;8.606;2024-02-21T11:53:08;13.27;;;3.20;;
21955;SDS011;11142;49.930;8.606;2024-02-21T11:55:36;7.63;;;3.38;;
21955;SDS011;11142;49.930;8.606;2024-02-21T11:58:06;10.18;;;3.28;;
21955;SDS011;11142;49.930;8.606;2024-02-21T12:00:35;8.80;;;3.10;;
21955;SDS011;11142;49.930;8.606;2024-02-21T12:03:03;6.50;;;3.15;;
21955;SDS011;11142;49.930;8.606;2024-02-21T12:05:34;6.65;;;2.70;;
21955;SDS011;11142;49.930;8.606;2024-02-21T12:08:03;11.85;;;3.65;;
21955;SDS011;11142;49.930;8.606;2024-02-21T12:10:32;7.53;;;2.92;;
21955;SDS011;11142;49.930;8.606;2024-02-21T12:13:07;8.98;;;2.67;;
21955;SDS011;11142;49.930;8.606;2024-02-21T12:15:38;4.72;;;2.72;;
21955;SDS011;11142;49.930;8.606;2024-02-21T12:18:07;5.38;;;2.60;;
21955;SDS011;11142;49.930;8.606;2024-02-21T12:20:38;10.15;;;3.15;;
21955;SDS011;11142;49.930;8.606;2024-02-21T12:23:08;8.88;;;2.85;;
21955;SDS011;11142;49.930;8.606;2024-02-21T12:25:38;7.00;;;2.80;;
21955;SDS011;11142;49.930;8.606;2024-02-21T12:28:08;10.27;;;3.30;;
21955;SDS011;11142;49.930;8.606;2024-02-21T12:30:36;11.98;;;3.22;;
21955;SDS011;11142;49.930;8.606;2024-02-21T12:33:07;9.45;;;3.83;;
21955;SDS011;11142;49.930;8.606;2024-02-21T12:35:37;9.40;;;2.83;;
21955;SDS011;11142;49.930;8.606;2024-02-21T12:38:05;11.27;;;3.17;;
21955;SDS011;11142;49.930;8.606;2024-02-21T12:40:40;4.55;;;2.78;;
21955;SDS011;11142;49.930;8.606;2024-02-21T12:43:09;6.95;;;2.95;;
21955;SDS011;11142;49.930;8.606;2024-02-21T12:45:42;10.00;;;2.70;;
21955;SDS011;11142;49.930;8.606;2024-02-21T12:48:16;10.27;;;3.00;;
21955;SDS011;11142;49.930;8.606;2024-02-21T12:50:48;6.88;;;2.60;;
21955;SDS011;11142;49.930;8.606;2024-02-21T12:53:17;8.25;;;2.80;;
21955;SDS011;11142;49.930;8.606;2024-02-21T12:55:58;6.57;;;2.50;;
21955;SDS011;11142;49.930;8.606;2024-02-21T12:58:28;11.48;;;2.80;;
21955;SDS011;11142;49.930;8.606;2024-02-21T13:00:58;9.27;;;2.83;;
21955;SDS011;11142;49.930;8.606;2024-02-21T13:03:27;5.90;;;2.65;;
21955;SDS011;11142;49.930;8.606;2024-02-21T13:05:59;10.27;;;2.58;;
21955;SDS011;11142;49.930;8.606;2024-02-21T13:08:28;9.68;;;2.72;;
21955;SDS011;11142;49.930;8.606;2024-02-21T13:11:01;11.25;;;2.80;;
21955;SDS011;11142;49.930;8.606;2024-02-21T13:13:31;7.78;;;2.47;;
21955;SDS011;11142;49.930;8.606;2024-02-21T13:15:59;9.40;;;2.50;;
21955;SDS011;11142;49.930;8.606;2024-02-21T13:18:30;11.13;;;3.15;;
21955;SDS011;11142;49.930;8.606;2024-02-21T13:20:59;7.35;;;2.60;;
21955;SDS011;11142;49.930;8.606;2024-02-21T13:23:28;6.32;;;2.65;;
21955;SDS011;11142;49.930;8.606;2024-02-21T13:25:57;8.00;;;2.15;;
21955;SDS011;11142;49.930;8.606;2024-02-21T13:28:25;5.40;;;2.45;;
21955;SDS011;11142;49.930;8.606;2024-02-21T13:30:55;8.15;;;3.20;;
21955;SDS011;11142;49.930;8.606;2024-02-21T13:33:24;9.82;;;2.50;;
21955;SDS011;11142;49.930;8.606;2024-02-21T13:35:59;8.32;;;2.30;;
21955;SDS011;11142;49.930;8.606;2024-02-21T13:38:30;8.70;;;2.85;;
21955;SDS011;11142;49.930;8.606;2024-02-21T13:40:58;5.88;;;2.90;;
21955;SDS011;11142;49.930;8.606;2024-02-21T13:43:28;8.88;;;2.88;;
21955;SDS011;11142;49.930;8.606;2024-02-21T13:46:00;7.60;;;2.58;;
21955;SDS011;11142;49.930;8.606;2024-02-21T13:48:31;4.63;;;2.30;;
21955;SDS011;11142;49.930;8.606;2024-02-21T13:51:01;6.82;;;2.38;;
21955;SDS011;11142;49.930;8.606;2024-02-21T13:53:29;9.88;;;2.78;;
21955;SDS011;11142;49.930;8.606;2024-02-21T13:55:58;11.65;;;2.67;;
21955;SDS011;11142;49.930;8.606;2024-02-21T13:58:27;6.95;;;2.42;;
21955;SDS011;11142;49.930;8.606;2024-02-21T14:00:58;6.82;;;2.53;;
21955;SDS011;11142;49.930;8.606;2024-02-21T14:03:29;5.97;;;2.75;;
21955;SDS011;11142;49.930;8.606;2024-02-21T14:05:57;6.28;;;2.33;;
21955;SDS011;11142;49.930;8.606;2024-02-21T14:08:26;6.72;;;2.20;;
21955;SDS011;11142;49.930;8.606;2024-02-21T14:10:55;8.15;;;2.40;;
21955;SDS011;11142;49.930;8.606;2024-02-21T14:13:26;7.72;;;2.55;;
21955;SDS011;11142;49.930;8.606;2024-02-21T14:15:55;6.75;;;2.75;;
21955;SDS011;11142;49.930;8.606;2024-02-21T14:18:24;4.78;;;2.13;;
21955;SDS011;11142;49.930;8.606;2024-02-21T14:23:26;5.93;;;2.25;;
21955;SDS011;11142;49.930;8.606;2024-02-21T14:25:54;5.95;;;2.28;;
21955;SDS011;11142;49.930;8.606;2024-02-21T14:28:22;6.15;;;2.40;;
21955;SDS011;11142;49.930;8.606;2024-02-21T14:30:50;6.65;;;2.35;;
21955;SDS011;11142;49.930;8.606;2024-02-21T14:33:25;6.43;;;2.55;;
21955;SDS011;11142;49.930;8.606;2024-02-21T14:35:53;6.97;;;2.35;;
21955;SDS011;11142;49.930;8.606;2024-02-21T14:38:21;4.20;;;2.13;;
21955;SDS011;11142;49.930;8.606;2024-02-21T14:40:49;7.53;;;2.42;;
21955;SDS011;11142;49.930;8.606;2024-02-21T14:43:17;10.85;;;3.58;;
21955;SDS011;11142;49.930;8.606;2024-02-21T14:45:48;8.43;;;3.03;;
21955;SDS011;11142;49.930;8.606;2024-02-21T14:48:17;8.52;;;3.10;;
21955;SDS011;11142;49.930;8.606;2024-02-21T14:50:47;7.85;;;2.72;;
21955;SDS011;11142;49.930;8.606;2024-02-21T14:53:17;9.07;;;2.85;;
21955;SDS011;11142;49.930;8.606;2024-02-21T14:55:45;3.50;;;1.88;;
21955;SDS011;11142;49.930;8.606;2024-02-21T14:58:13;5.32;;;2.17;;
21955;SDS011;11142;49.930;8.606;2024-02-21T15:00:43;8.90;;;2.40;;
21955;SDS011;11142;49.930;8.606;2024-02-21T15:03:13;5.53;;;2.60;;
21955;SDS011;11142;49.930;8.606;2024-02-21T15:05:41;8.52;;;2.50;;
21955;SDS011;11142;49.930;8.606;2024-02-21T15:08:11;8.45;;;2.85;;
21955;SDS011;11142;49.930;8.606;2024-02-21T15:10:43;8.48;;;2.42;;